sensor_id;sensor_type;location;lat;lon;timestamp;temperature;humidity
11700;DHT22;5906;51.660;6.674;2023-06-22T00:01:20;20.00;99.90
11700;DHT22;5906;51.660;6.674;2023-06-22T00:03:49;20.00;99.90
11700;DHT22;5906;51.660;6.674;2023-06-22T00:06:16;20.10;99.90
11700;DHT22;5906;51.660;6.674;2023-06-22T00:08:43;20.00;99.90
11700;DHT22;5906;51.660;6.674;2023-06-22T00:11:10;20.00;99.90
11700;DHT22;5906;51.660;6.674;2023-06-22T00:13:37;20.10;99.90
11700;DHT22;5906;51.660;6.674;2023-06-22T00:16:04;20.00;99.90
11700;DHT22;5906;51.660;6.674;2023-06-22T00:18:31;20.00;99.90
11700;DHT22;5906;51.660;6.674;2023-06-22T00:20:59;20.00;99.90
11700;DHT22;5906;51.660;6.674;2023-06-22T00:23:27;20.00;99.90
11700;DHT22;5906;51.660;6.674;2023-06-22T00:25:54;20.00;99.90
11700;DHT22;5906;51.660;6.674;2023-06-22T00:28:21;20.00;99.90
11700;DHT22;5906;51.660;6.674;2023-06-22T00:30:49;19.90;99.90
11700;DHT22;5906;51.660;6.674;2023-06-22T00:33:16;19.90;99.90
11700;DHT22;5906;51.660;6.674;2023-06-22T00:35:43;19.90;99.90
11700;DHT22;5906;51.660;6.674;2023-06-22T00:38:10;19.90;99.90
11700;DHT22;5906;51.660;6.674;2023-06-22T00:40:37;19.90;99.90
11700;DHT22;5906;51.660;6.674;2023-06-22T00:43:05;19.90;99.90
11700;DHT22;5906;51.660;6.674;2023-06-22T00:45:32;19.90;99.90
11700;DHT22;5906;51.660;6.674;2023-06-22T00:47:59;19.80;99.90
11700;DHT22;5906;51.660;6.674;2023-06-22T00:50:28;19.80;99.90
11700;DHT22;5906;51.660;6.674;2023-06-22T00:53:05;19.70;99.90
11700;DHT22;5906;51.660;6.674;2023-06-22T00:55:38;19.70;99.90
11700;DHT22;5906;51.660;6.674;2023-06-22T00:58:08;19.60;99.90
11700;DHT22;5906;51.660;6.674;2023-06-22T01:00:38;19.60;99.90
11700;DHT22;5906;51.660;6.674;2023-06-22T01:03:05;19.60;99.90
11700;DHT22;5906;51.660;6.674;2023-06-22T01:05:37;19.60;99.90
11700;DHT22;5906;51.660;6.674;2023-06-22T01:08:31;19.60;99.90
11700;DHT22;5906;51.660;6.674;2023-06-22T01:13:54;19.50;99.90
11700;DHT22;5906;51.660;6.674;2023-06-22T01:16:30;19.60;99.90
11700;DHT22;5906;51.660;6.674;2023-06-22T01:19:00;19.50;99.90
11700;DHT22;5906;51.660;6.674;2023-06-22T01:21:29;19.50;99.90
11700;DHT22;5906;51.660;6.674;2023-06-22T01:24:11;19.50;99.90
11700;DHT22;5906;51.660;6.674;2023-06-22T01:27:02;19.50;99.90
11700;DHT22;5906;51.660;6.674;2023-06-22T01:29:32;19.50;99.90
11700;DHT22;5906;51.660;6.674;2023-06-22T01:32:00;19.50;99.90
11700;DHT22;5906;51.660;6.674;2023-06-22T01:34:29;19.50;99.90
11700;DHT22;5906;51.660;6.674;2023-06-22T01:36:59;19.50;99.90
11700;DHT22;5906;51.660;6.674;2023-06-22T01:39:26;19.50;99.90
11700;DHT22;5906;51.660;6.674;2023-06-22T01:41:54;19.50;99.90
11700;DHT22;5906;51.660;6.674;2023-06-22T01:44:21;19.50;99.90
11700;DHT22;5906;51.660;6.674;2023-06-22T01:46:49;19.40;99.90
11700;DHT22;5906;51.660;6.674;2023-06-22T01:49:19;19.40;99.90
11700;DHT22;5906;51.660;6.674;2023-06-22T01:51:47;19.40;99.90
11700;DHT22;5906;51.660;6.674;2023-06-22T01:54:13;19.30;99.90
11700;DHT22;5906;51.660;6.674;2023-06-22T01:56:40;19.30;99.90
11700;DHT22;5906;51.660;6.674;2023-06-22T01:59:31;19.20;99.90
11700;DHT22;5906;51.660;6.674;2023-06-22T02:02:06;19.20;99.90
11700;DHT22;5906;51.660;6.674;2023-06-22T02:04:51;19.20;99.90
11700;DHT22;5906;51.660;6.674;2023-06-22T02:07:23;19.20;99.90
11700;DHT22;5906;51.660;6.674;2023-06-22T02:09:52;19.10;99.90
11700;DHT22;5906;51.660;6.674;2023-06-22T02:12:23;19.10;99.90
11700;DHT22;5906;51.660;6.674;2023-06-22T02:14:52;19.10;99.90
11700;DHT22;5906;51.660;6.674;2023-06-22T02:17:20;19.10;99.90
11700;DHT22;5906;51.660;6.674;2023-06-22T02:19:47;19.00;99.90
11700;DHT22;5906;51.660;6.674;2023-06-22T02:22:13;19.00;99.90
11700;DHT22;5906;51.660;6.674;2023-06-22T02:24:41;19.00;99.90
11700;DHT22;5906;51.660;6.674;2023-06-22T02:27:08;18.90;99.90
11700;DHT22;5906;51.660;6.674;2023-06-22T02:29:34;18.90;99.90
11700;DHT22;5906;51.660;6.674;2023-06-22T02:32:02;18.90;99.90
11700;DHT22;5906;51.660;6.674;2023-06-22T02:34:28;18.80;99.90
11700;DHT22;5906;51.660;6.674;2023-06-22T02:36:55;18.90;99.90
11700;DHT22;5906;51.660;6.674;2023-06-22T02:39:25;18.80;99.90
11700;DHT22;5906;51.660;6.674;2023-06-22T02:41:54;18.80;99.90
11700;DHT22;5906;51.660;6.674;2023-06-22T02:44:21;18.70;99.90
11700;DHT22;5906;51.660;6.674;2023-06-22T02:46:48;18.70;99.90
11700;DHT22;5906;51.660;6.674;2023-06-22T02:49:15;18.80;99.90
11700;DHT22;5906;51.660;6.674;2023-06-22T02:51:45;18.70;99.90
11700;DHT22;5906;51.660;6.674;2023-06-22T02:54:13;18.70;99.90
11700;DHT22;5906;51.660;6.674;2023-06-22T02:56:39;18.70;99.90
11700;DHT22;5906;51.660;6.674;2023-06-22T02:59:07;18.70;99.90
11700;DHT22;5906;51.660;6.674;2023-06-22T03:01:34;18.70;99.90
11700;DHT22;5906;51.660;6.674;2023-06-22T03:04:07;18.60;99.90
11700;DHT22;5906;51.660;6.674;2023-06-22T03:06:35;18.70;99.90
11700;DHT22;5906;51.660;6.674;2023-06-22T03:09:03;18.70;99.90
11700;DHT22;5906;51.660;6.674;2023-06-22T03:11:31;18.70;99.90
11700;DHT22;5906;51.660;6.674;2023-06-22T03:13:59;18.70;99.90
11700;DHT22;5906;51.660;6.674;2023-06-22T03:16:26;18.70;99.90
11700;DHT22;5906;51.660;6.674;2023-06-22T03:18:53;18.60;99.90
11700;DHT22;5906;51.660;6.674;2023-06-22T03:21:22;18.60;99.90
11700;DHT22;5906;51.660;6.674;2023-06-22T03:23:49;18.60;99.90
11700;DHT22;5906;51.660;6.674;2023-06-22T03:26:19;18.60;99.90
11700;DHT22;5906;51.660;6.674;2023-06-22T03:28:46;18.50;99.90
11700;DHT22;5906;51.660;6.674;2023-06-22T03:31:13;18.50;99.90
11700;DHT22;5906;51.660;6.674;2023-06-22T03:33:40;18.50;99.90
11700;DHT22;5906;51.660;6.674;2023-06-22T03:36:07;18.40;99.90
11700;DHT22;5906;51.660;6.674;2023-06-22T03:38:34;18.40;99.90
11700;DHT22;5906;51.660;6.674;2023-06-22T03:41:01;18.30;99.90
11700;DHT22;5906;51.660;6.674;2023-06-22T03:43:27;18.40;99.90
11700;DHT22;5906;51.660;6.674;2023-06-22T03:45:54;18.40;99.90
11700;DHT22;5906;51.660;6.674;2023-06-22T03:48:21;18.30;99.90
11700;DHT22;5906;51.660;6.674;2023-06-22T03:50:48;18.30;99.90
11700;DHT22;5906;51.660;6.674;2023-06-22T03:53:15;18.30;99.90
11700;DHT22;5906;51.660;6.674;2023-06-22T03:55:50;18.30;99.90
11700;DHT22;5906;51.660;6.674;2023-06-22T03:58:19;18.30;99.90
11700;DHT22;5906;51.660;6.674;2023-06-22T04:00:47;18.30;99.90
11700;DHT22;5906;51.660;6.674;2023-06-22T04:03:15;18.30;99.90
11700;DHT22;5906;51.660;6.674;2023-06-22T04:05:42;18.30;99.90
11700;DHT22;5906;51.660;6.674;2023-06-22T04:08:09;18.40;99.90
11700;DHT22;5906;51.660;6.674;2023-06-22T04:10:36;18.40;99.90
11700;DHT22;5906;51.660;6.674;2023-06-22T04:13:03;18.50;99.90
11700;DHT22;5906;51.660;6.674;2023-06-22T04:15:30;18.40;99.90
11700;DHT22;5906;51.660;6.674;2023-06-22T04:17:57;18.50;99.90
11700;DHT22;5906;51.660;6.674;2023-06-22T04:20:24;18.60;99.90
11700;DHT22;5906;51.660;6.674;2023-06-22T04:22:56;18.70;99.90
11700;DHT22;5906;51.660;6.674;2023-06-22T04:25:23;18.80;99.90
11700;DHT22;5906;51.660;6.674;2023-06-22T04:27:49;18.90;99.90
11700;DHT22;5906;51.660;6.674;2023-06-22T04:30:17;19.00;99.90
11700;DHT22;5906;51.660;6.674;2023-06-22T04:32:45;19.10;99.90
11700;DHT22;5906;51.660;6.674;2023-06-22T04:35:12;19.20;99.90
11700;DHT22;5906;51.660;6.674;2023-06-22T04:41:56;19.40;99.90
11700;DHT22;5906;51.660;6.674;2023-06-22T04:45:45;19.50;99.90
11700;DHT22;5906;51.660;6.674;2023-06-22T04:49:16;19.70;99.90
11700;DHT22;5906;51.660;6.674;2023-06-22T04:57:43;19.90;99.90
11700;DHT22;5906;51.660;6.674;2023-06-22T05:01:11;19.90;99.90
11700;DHT22;5906;51.660;6.674;2023-06-22T05:04:37;19.90;99.90
11700;DHT22;5906;51.660;6.674;2023-06-22T05:07:52;20.10;99.90
11700;DHT22;5906;51.660;6.674;2023-06-22T05:11:26;20.20;99.90
11700;DHT22;5906;51.660;6.674;2023-06-22T05:13:53;20.40;99.90
11700;DHT22;5906;51.660;6.674;2023-06-22T05:16:21;20.50;99.90
11700;DHT22;5906;51.660;6.674;2023-06-22T05:18:54;20.60;99.90
11700;DHT22;5906;51.660;6.674;2023-06-22T05:21:23;20.60;99.90
11700;DHT22;5906;51.660;6.674;2023-06-22T05:23:51;20.60;99.90
11700;DHT22;5906;51.660;6.674;2023-06-22T05:26:19;20.70;99.90
11700;DHT22;5906;51.660;6.674;2023-06-22T05:28:47;20.70;99.90
11700;DHT22;5906;51.660;6.674;2023-06-22T05:31:15;20.70;99.90
11700;DHT22;5906;51.660;6.674;2023-06-22T05:33:43;20.70;99.90
11700;DHT22;5906;51.660;6.674;2023-06-22T05:36:28;20.60;99.90
11700;DHT22;5906;51.660;6.674;2023-06-22T05:39:59;20.60;99.90
11700;DHT22;5906;51.660;6.674;2023-06-22T05:43:06;20.60;99.90
11700;DHT22;5906;51.660;6.674;2023-06-22T05:51:19;20.70;99.90
11700;DHT22;5906;51.660;6.674;2023-06-22T05:54:23;20.80;99.90
11700;DHT22;5906;51.660;6.674;2023-06-22T05:56:50;20.80;99.90
11700;DHT22;5906;51.660;6.674;2023-06-22T05:59:17;20.80;99.90
11700;DHT22;5906;51.660;6.674;2023-06-22T06:01:44;20.80;99.90
11700;DHT22;5906;51.660;6.674;2023-06-22T06:04:11;20.90;99.90
11700;DHT22;5906;51.660;6.674;2023-06-22T06:06:38;20.90;99.90
11700;DHT22;5906;51.660;6.674;2023-06-22T06:09:06;20.90;99.90
11700;DHT22;5906;51.660;6.674;2023-06-22T06:11:34;20.90;99.90
11700;DHT22;5906;51.660;6.674;2023-06-22T06:14:01;20.90;99.90
11700;DHT22;5906;51.660;6.674;2023-06-22T06:16:28;20.80;99.90
11700;DHT22;5906;51.660;6.674;2023-06-22T06:18:55;20.80;99.90
11700;DHT22;5906;51.660;6.674;2023-06-22T06:21:22;20.90;99.90
11700;DHT22;5906;51.660;6.674;2023-06-22T06:23:49;21.00;99.90
11700;DHT22;5906;51.660;6.674;2023-06-22T06:26:17;21.10;99.90
11700;DHT22;5906;51.660;6.674;2023-06-22T06:28:44;21.10;99.90
11700;DHT22;5906;51.660;6.674;2023-06-22T06:31:12;21.10;99.90
11700;DHT22;5906;51.660;6.674;2023-06-22T06:33:43;21.10;99.90
11700;DHT22;5906;51.660;6.674;2023-06-22T06:36:11;21.20;99.90
11700;DHT22;5906;51.660;6.674;2023-06-22T06:38:37;21.30;99.90
11700;DHT22;5906;51.660;6.674;2023-06-22T06:41:04;21.30;99.90
11700;DHT22;5906;51.660;6.674;2023-06-22T06:43:31;21.30;99.90
11700;DHT22;5906;51.660;6.674;2023-06-22T06:45:58;21.40;99.90
11700;DHT22;5906;51.660;6.674;2023-06-22T06:48:26;21.30;99.90
11700;DHT22;5906;51.660;6.674;2023-06-22T06:50:53;21.30;99.90
11700;DHT22;5906;51.660;6.674;2023-06-22T06:53:20;21.20;99.90
11700;DHT22;5906;51.660;6.674;2023-06-22T06:55:47;21.20;99.90
11700;DHT22;5906;51.660;6.674;2023-06-22T06:58:15;21.40;99.90
11700;DHT22;5906;51.660;6.674;2023-06-22T07:00:43;21.40;99.90
11700;DHT22;5906;51.660;6.674;2023-06-22T07:03:10;21.40;99.90
11700;DHT22;5906;51.660;6.674;2023-06-22T07:05:37;21.40;99.90
11700;DHT22;5906;51.660;6.674;2023-06-22T07:08:04;21.50;99.90
11700;DHT22;5906;51.660;6.674;2023-06-22T07:10:31;21.50;99.90
11700;DHT22;5906;51.660;6.674;2023-06-22T07:12:59;21.50;99.90
11700;DHT22;5906;51.660;6.674;2023-06-22T07:15:25;21.50;99.90
11700;DHT22;5906;51.660;6.674;2023-06-22T07:17:53;21.50;99.90
11700;DHT22;5906;51.660;6.674;2023-06-22T07:20:20;21.50;99.90
11700;DHT22;5906;51.660;6.674;2023-06-22T07:22:47;21.60;99.90
11700;DHT22;5906;51.660;6.674;2023-06-22T07:25:13;21.50;99.90
11700;DHT22;5906;51.660;6.674;2023-06-22T07:30:30;21.40;99.90
11700;DHT22;5906;51.660;6.674;2023-06-22T07:32:59;21.50;99.90
11700;DHT22;5906;51.660;6.674;2023-06-22T07:35:30;21.50;99.90
11700;DHT22;5906;51.660;6.674;2023-06-22T07:37:57;21.60;99.90
11700;DHT22;5906;51.660;6.674;2023-06-22T07:40:28;21.60;99.90
11700;DHT22;5906;51.660;6.674;2023-06-22T07:42:56;21.50;99.90
11700;DHT22;5906;51.660;6.674;2023-06-22T07:45:23;21.50;99.90
11700;DHT22;5906;51.660;6.674;2023-06-22T07:47:49;21.50;99.90
11700;DHT22;5906;51.660;6.674;2023-06-22T07:50:17;21.60;99.90
11700;DHT22;5906;51.660;6.674;2023-06-22T07:52:44;21.60;99.90
11700;DHT22;5906;51.660;6.674;2023-06-22T07:55:11;21.70;99.90
11700;DHT22;5906;51.660;6.674;2023-06-22T07:57:38;21.80;99.90
11700;DHT22;5906;51.660;6.674;2023-06-22T08:00:07;21.80;99.90
11700;DHT22;5906;51.660;6.674;2023-06-22T08:02:44;21.90;99.90
11700;DHT22;5906;51.660;6.674;2023-06-22T08:05:11;21.90;99.90
11700;DHT22;5906;51.660;6.674;2023-06-22T08:07:48;22.00;99.90
11700;DHT22;5906;51.660;6.674;2023-06-22T08:10:17;22.10;99.90
11700;DHT22;5906;51.660;6.674;2023-06-22T08:12:44;22.10;99.90
11700;DHT22;5906;51.660;6.674;2023-06-22T08:15:11;22.20;99.90
11700;DHT22;5906;51.660;6.674;2023-06-22T08:17:38;22.20;99.90
11700;DHT22;5906;51.660;6.674;2023-06-22T08:20:09;22.30;99.90
11700;DHT22;5906;51.660;6.674;2023-06-22T08:22:38;22.50;99.90
11700;DHT22;5906;51.660;6.674;2023-06-22T08:25:06;22.60;99.90
11700;DHT22;5906;51.660;6.674;2023-06-22T08:27:33;22.80;99.90
11700;DHT22;5906;51.660;6.674;2023-06-22T08:30:00;22.90;99.90
11700;DHT22;5906;51.660;6.674;2023-06-22T08:32:30;23.00;99.90
11700;DHT22;5906;51.660;6.674;2023-06-22T08:34:59;23.00;99.90
11700;DHT22;5906;51.660;6.674;2023-06-22T08:37:26;23.00;99.90
11700;DHT22;5906;51.660;6.674;2023-06-22T08:39:59;23.20;99.90
11700;DHT22;5906;51.660;6.674;2023-06-22T08:42:27;23.30;99.90
11700;DHT22;5906;51.660;6.674;2023-06-22T08:44:55;23.30;99.90
11700;DHT22;5906;51.660;6.674;2023-06-22T08:47:22;23.30;99.90
11700;DHT22;5906;51.660;6.674;2023-06-22T08:49:50;23.30;99.90
11700;DHT22;5906;51.660;6.674;2023-06-22T08:52:17;23.40;99.90
11700;DHT22;5906;51.660;6.674;2023-06-22T08:54:47;23.50;99.90
11700;DHT22;5906;51.660;6.674;2023-06-22T08:57:14;23.50;99.90
11700;DHT22;5906;51.660;6.674;2023-06-22T08:59:41;23.60;99.90
11700;DHT22;5906;51.660;6.674;2023-06-22T09:02:08;23.60;99.90
11700;DHT22;5906;51.660;6.674;2023-06-22T09:04:35;23.50;99.90
11700;DHT22;5906;51.660;6.674;2023-06-22T09:07:03;23.50;99.90
11700;DHT22;5906;51.660;6.674;2023-06-22T09:09:30;23.30;99.90
11700;DHT22;5906;51.660;6.674;2023-06-22T09:11:57;23.20;99.90
11700;DHT22;5906;51.660;6.674;2023-06-22T09:14:24;23.20;99.90
11700;DHT22;5906;51.660;6.674;2023-06-22T09:16:51;23.40;99.90
11700;DHT22;5906;51.660;6.674;2023-06-22T09:19:18;23.50;99.90
11700;DHT22;5906;51.660;6.674;2023-06-22T09:21:44;23.60;99.90
11700;DHT22;5906;51.660;6.674;2023-06-22T09:24:11;23.60;99.90
11700;DHT22;5906;51.660;6.674;2023-06-22T09:26:39;23.60;99.90
11700;DHT22;5906;51.660;6.674;2023-06-22T09:29:06;23.70;99.90
11700;DHT22;5906;51.660;6.674;2023-06-22T09:31:32;23.70;99.90
11700;DHT22;5906;51.660;6.674;2023-06-22T09:34:02;23.90;99.90
11700;DHT22;5906;51.660;6.674;2023-06-22T09:36:29;24.00;99.90
11700;DHT22;5906;51.660;6.674;2023-06-22T09:38:56;24.00;99.90
11700;DHT22;5906;51.660;6.674;2023-06-22T09:41:25;24.10;99.90
11700;DHT22;5906;51.660;6.674;2023-06-22T09:43:52;24.20;99.90
11700;DHT22;5906;51.660;6.674;2023-06-22T09:46:22;24.30;99.90
11700;DHT22;5906;51.660;6.674;2023-06-22T09:48:52;24.50;99.90
11700;DHT22;5906;51.660;6.674;2023-06-22T09:51:19;24.70;99.90
11700;DHT22;5906;51.660;6.674;2023-06-22T09:53:51;24.80;99.90
11700;DHT22;5906;51.660;6.674;2023-06-22T09:56:18;24.90;99.90
11700;DHT22;5906;51.660;6.674;2023-06-22T09:58:46;24.80;99.90
11700;DHT22;5906;51.660;6.674;2023-06-22T10:01:14;24.70;99.90
11700;DHT22;5906;51.660;6.674;2023-06-22T10:03:44;24.80;99.90
11700;DHT22;5906;51.660;6.674;2023-06-22T10:06:11;24.80;99.90
11700;DHT22;5906;51.660;6.674;2023-06-22T10:08:38;24.70;99.90
11700;DHT22;5906;51.660;6.674;2023-06-22T10:11:08;24.70;99.90
11700;DHT22;5906;51.660;6.674;2023-06-22T10:13:35;24.50;99.90
11700;DHT22;5906;51.660;6.674;2023-06-22T10:16:03;24.40;99.90
11700;DHT22;5906;51.660;6.674;2023-06-22T10:18:30;24.40;99.90
11700;DHT22;5906;51.660;6.674;2023-06-22T10:20:57;24.40;99.90
11700;DHT22;5906;51.660;6.674;2023-06-22T10:23:24;24.30;99.90
11700;DHT22;5906;51.660;6.674;2023-06-22T10:25:51;24.20;99.90
11700;DHT22;5906;51.660;6.674;2023-06-22T10:28:18;24.00;99.90
11700;DHT22;5906;51.660;6.674;2023-06-22T10:30:45;24.00;99.90
11700;DHT22;5906;51.660;6.674;2023-06-22T10:33:12;23.90;99.90
11700;DHT22;5906;51.660;6.674;2023-06-22T10:35:39;24.00;99.90
11700;DHT22;5906;51.660;6.674;2023-06-22T10:38:06;24.00;99.90
11700;DHT22;5906;51.660;6.674;2023-06-22T10:40:33;24.10;99.90
11700;DHT22;5906;51.660;6.674;2023-06-22T10:43:00;24.10;99.90
11700;DHT22;5906;51.660;6.674;2023-06-22T10:45:27;24.10;99.90
11700;DHT22;5906;51.660;6.674;2023-06-22T10:47:55;24.10;99.90
11700;DHT22;5906;51.660;6.674;2023-06-22T10:50:22;24.20;99.90
11700;DHT22;5906;51.660;6.674;2023-06-22T10:52:50;24.20;99.90
11700;DHT22;5906;51.660;6.674;2023-06-22T10:55:17;24.40;99.90
11700;DHT22;5906;51.660;6.674;2023-06-22T10:57:44;24.50;99.90
11700;DHT22;5906;51.660;6.674;2023-06-22T11:00:15;24.60;99.90
11700;DHT22;5906;51.660;6.674;2023-06-22T11:02:43;24.70;99.90
11700;DHT22;5906;51.660;6.674;2023-06-22T11:05:11;24.80;99.90
11700;DHT22;5906;51.660;6.674;2023-06-22T11:07:41;24.90;99.90
11700;DHT22;5906;51.660;6.674;2023-06-22T11:10:11;25.00;99.90
11700;DHT22;5906;51.660;6.674;2023-06-22T11:12:38;25.00;99.90
11700;DHT22;5906;51.660;6.674;2023-06-22T11:15:06;25.10;99.90
11700;DHT22;5906;51.660;6.674;2023-06-22T11:17:34;25.10;99.90
11700;DHT22;5906;51.660;6.674;2023-06-22T11:20:02;25.10;99.90
11700;DHT22;5906;51.660;6.674;2023-06-22T11:22:32;25.10;99.90
11700;DHT22;5906;51.660;6.674;2023-06-22T11:25:00;25.30;99.90
11700;DHT22;5906;51.660;6.674;2023-06-22T11:27:27;25.30;99.90
11700;DHT22;5906;51.660;6.674;2023-06-22T11:29:54;25.30;99.90
11700;DHT22;5906;51.660;6.674;2023-06-22T11:32:22;25.20;99.90
11700;DHT22;5906;51.660;6.674;2023-06-22T11:34:49;25.00;99.90
11700;DHT22;5906;51.660;6.674;2023-06-22T11:37:16;24.80;99.90
11700;DHT22;5906;51.660;6.674;2023-06-22T11:39:43;24.80;99.90
11700;DHT22;5906;51.660;6.674;2023-06-22T11:42:19;24.70;99.90
11700;DHT22;5906;51.660;6.674;2023-06-22T11:44:46;24.70;99.90
11700;DHT22;5906;51.660;6.674;2023-06-22T11:47:12;24.60;99.90
11700;DHT22;5906;51.660;6.674;2023-06-22T11:49:39;24.60;99.90
11700;DHT22;5906;51.660;6.674;2023-06-22T11:52:07;24.60;99.90
11700;DHT22;5906;51.660;6.674;2023-06-22T11:54:34;24.60;99.90
11700;DHT22;5906;51.660;6.674;2023-06-22T11:57:01;24.70;99.90
11700;DHT22;5906;51.660;6.674;2023-06-22T11:59:28;24.60;99.90
11700;DHT22;5906;51.660;6.674;2023-06-22T12:01:55;24.70;99.90
11700;DHT22;5906;51.660;6.674;2023-06-22T12:04:22;24.60;99.90
11700;DHT22;5906;51.660;6.674;2023-06-22T12:06:49;24.70;99.90
11700;DHT22;5906;51.660;6.674;2023-06-22T12:09:16;24.50;99.90
11700;DHT22;5906;51.660;6.674;2023-06-22T12:11:43;24.40;99.90
11700;DHT22;5906;51.660;6.674;2023-06-22T12:14:09;24.30;99.90
11700;DHT22;5906;51.660;6.674;2023-06-22T12:16:36;24.20;99.90
11700;DHT22;5906;51.660;6.674;2023-06-22T12:19:04;24.10;99.90
11700;DHT22;5906;51.660;6.674;2023-06-22T12:21:31;24.00;99.90
11700;DHT22;5906;51.660;6.674;2023-06-22T12:23:58;24.00;99.90
11700;DHT22;5906;51.660;6.674;2023-06-22T12:26:25;24.00;99.90
11700;DHT22;5906;51.660;6.674;2023-06-22T12:28:52;24.00;99.90
11700;DHT22;5906;51.660;6.674;2023-06-22T12:31:19;23.80;99.90
11700;DHT22;5906;51.660;6.674;2023-06-22T12:33:46;23.80;99.90
11700;DHT22;5906;51.660;6.674;2023-06-22T12:36:13;23.80;99.90
11700;DHT22;5906;51.660;6.674;2023-06-22T12:38:40;23.80;99.90
11700;DHT22;5906;51.660;6.674;2023-06-22T12:41:07;23.80;99.90
11700;DHT22;5906;51.660;6.674;2023-06-22T12:43:34;23.80;99.90
11700;DHT22;5906;51.660;6.674;2023-06-22T12:46:02;23.90;99.90
11700;DHT22;5906;51.660;6.674;2023-06-22T12:48:29;24.00;99.90
11700;DHT22;5906;51.660;6.674;2023-06-22T12:50:56;24.10;99.90
11700;DHT22;5906;51.660;6.674;2023-06-22T12:53:23;24.30;99.90
11700;DHT22;5906;51.660;6.674;2023-06-22T12:55:50;24.40;99.90
11700;DHT22;5906;51.660;6.674;2023-06-22T12:58:17;24.40;99.90
11700;DHT22;5906;51.660;6.674;2023-06-22T13:00:44;24.50;99.90
11700;DHT22;5906;51.660;6.674;2023-06-22T13:03:11;24.70;99.90
11700;DHT22;5906;51.660;6.674;2023-06-22T13:05:38;24.70;99.90
11700;DHT22;5906;51.660;6.674;2023-06-22T13:08:05;24.60;99.90
11700;DHT22;5906;51.660;6.674;2023-06-22T13:10:32;24.60;99.90
11700;DHT22;5906;51.660;6.674;2023-06-22T13:13:00;24.60;99.90
11700;DHT22;5906;51.660;6.674;2023-06-22T13:15:30;24.70;99.90
11700;DHT22;5906;51.660;6.674;2023-06-22T13:17:58;24.80;99.90
11700;DHT22;5906;51.660;6.674;2023-06-22T13:20:25;24.90;99.90
11700;DHT22;5906;51.660;6.674;2023-06-22T13:22:52;25.00;99.90
11700;DHT22;5906;51.660;6.674;2023-06-22T13:25:20;25.00;99.90
11700;DHT22;5906;51.660;6.674;2023-06-22T13:27:50;24.90;99.90
11700;DHT22;5906;51.660;6.674;2023-06-22T13:30:17;24.80;99.90
11700;DHT22;5906;51.660;6.674;2023-06-22T13:32:45;24.90;99.90
11700;DHT22;5906;51.660;6.674;2023-06-22T13:35:12;24.90;99.90
11700;DHT22;5906;51.660;6.674;2023-06-22T13:37:39;24.90;99.90
11700;DHT22;5906;51.660;6.674;2023-06-22T13:40:07;24.80;99.90
11700;DHT22;5906;51.660;6.674;2023-06-22T13:42:35;24.70;99.90
11700;DHT22;5906;51.660;6.674;2023-06-22T13:45:02;24.50;99.90
11700;DHT22;5906;51.660;6.674;2023-06-22T13:47:30;24.50;99.90
11700;DHT22;5906;51.660;6.674;2023-06-22T13:49:58;24.40;99.90
11700;DHT22;5906;51.660;6.674;2023-06-22T13:52:25;24.30;99.90
11700;DHT22;5906;51.660;6.674;2023-06-22T13:54:52;24.30;99.90
11700;DHT22;5906;51.660;6.674;2023-06-22T13:57:19;24.30;99.90
11700;DHT22;5906;51.660;6.674;2023-06-22T13:59:46;24.30;99.90
11700;DHT22;5906;51.660;6.674;2023-06-22T14:02:15;24.40;99.90
11700;DHT22;5906;51.660;6.674;2023-06-22T14:04:43;24.50;99.90
11700;DHT22;5906;51.660;6.674;2023-06-22T14:07:10;24.60;99.90
11700;DHT22;5906;51.660;6.674;2023-06-22T14:09:39;24.50;99.90
11700;DHT22;5906;51.660;6.674;2023-06-22T14:12:07;24.30;99.90
11700;DHT22;5906;51.660;6.674;2023-06-22T14:14:34;24.20;99.90
11700;DHT22;5906;51.660;6.674;2023-06-22T14:17:01;24.10;99.90
11700;DHT22;5906;51.660;6.674;2023-06-22T14:19:28;24.00;99.90
11700;DHT22;5906;51.660;6.674;2023-06-22T14:21:56;23.90;99.90
11700;DHT22;5906;51.660;6.674;2023-06-22T14:24:24;23.90;99.90
11700;DHT22;5906;51.660;6.674;2023-06-22T14:27:11;23.80;99.90
11700;DHT22;5906;51.660;6.674;2023-06-22T14:29:38;23.70;99.90
11700;DHT22;5906;51.660;6.674;2023-06-22T14:32:05;23.60;99.90
11700;DHT22;5906;51.660;6.674;2023-06-22T14:34:34;23.60;99.90
11700;DHT22;5906;51.660;6.674;2023-06-22T14:37:03;23.60;99.90
11700;DHT22;5906;51.660;6.674;2023-06-22T14:39:30;23.60;99.90
11700;DHT22;5906;51.660;6.674;2023-06-22T14:41:57;23.60;99.90
11700;DHT22;5906;51.660;6.674;2023-06-22T14:44:24;23.60;99.90
11700;DHT22;5906;51.660;6.674;2023-06-22T14:46:51;23.50;99.90
11700;DHT22;5906;51.660;6.674;2023-06-22T14:49:18;23.50;99.90
11700;DHT22;5906;51.660;6.674;2023-06-22T14:51:46;23.40;99.90
11700;DHT22;5906;51.660;6.674;2023-06-22T14:54:13;23.50;99.90
11700;DHT22;5906;51.660;6.674;2023-06-22T14:56:40;23.40;99.90
11700;DHT22;5906;51.660;6.674;2023-06-22T14:59:07;23.40;99.90
11700;DHT22;5906;51.660;6.674;2023-06-22T15:01:35;23.30;99.90
11700;DHT22;5906;51.660;6.674;2023-06-22T15:04:02;23.30;99.90
11700;DHT22;5906;51.660;6.674;2023-06-22T15:06:30;23.30;99.90
11700;DHT22;5906;51.660;6.674;2023-06-22T15:08:57;23.20;99.90
11700;DHT22;5906;51.660;6.674;2023-06-22T15:11:24;23.10;99.90
11700;DHT22;5906;51.660;6.674;2023-06-22T15:13:51;23.10;99.90
11700;DHT22;5906;51.660;6.674;2023-06-22T15:16:18;22.90;99.90
11700;DHT22;5906;51.660;6.674;2023-06-22T15:18:46;23.00;99.90
11700;DHT22;5906;51.660;6.674;2023-06-22T15:21:14;23.10;99.90
11700;DHT22;5906;51.660;6.674;2023-06-22T15:23:41;23.00;99.90
11700;DHT22;5906;51.660;6.674;2023-06-22T15:26:08;22.90;99.90
11700;DHT22;5906;51.660;6.674;2023-06-22T15:28:35;22.90;99.90
11700;DHT22;5906;51.660;6.674;2023-06-22T15:31:05;22.90;99.90
11700;DHT22;5906;51.660;6.674;2023-06-22T15:33:32;22.90;99.90
11700;DHT22;5906;51.660;6.674;2023-06-22T15:35:59;22.80;99.90
11700;DHT22;5906;51.660;6.674;2023-06-22T15:38:32;22.70;99.90
11700;DHT22;5906;51.660;6.674;2023-06-22T15:40:59;22.70;99.90
11700;DHT22;5906;51.660;6.674;2023-06-22T15:43:26;22.50;99.90
11700;DHT22;5906;51.660;6.674;2023-06-22T15:45:54;22.50;99.90
11700;DHT22;5906;51.660;6.674;2023-06-22T15:48:22;22.30;99.90
11700;DHT22;5906;51.660;6.674;2023-06-22T15:50:49;22.20;99.90
11700;DHT22;5906;51.660;6.674;2023-06-22T15:53:15;22.20;99.90
11700;DHT22;5906;51.660;6.674;2023-06-22T15:55:42;22.10;99.90
11700;DHT22;5906;51.660;6.674;2023-06-22T15:58:09;22.10;99.90
11700;DHT22;5906;51.660;6.674;2023-06-22T16:00:39;22.00;99.90
11700;DHT22;5906;51.660;6.674;2023-06-22T16:03:07;21.90;99.90
11700;DHT22;5906;51.660;6.674;2023-06-22T16:05:35;21.80;99.90
11700;DHT22;5906;51.660;6.674;2023-06-22T16:08:02;21.80;99.90
11700;DHT22;5906;51.660;6.674;2023-06-22T16:10:29;21.80;99.90
11700;DHT22;5906;51.660;6.674;2023-06-22T16:12:57;21.90;99.90
11700;DHT22;5906;51.660;6.674;2023-06-22T16:15:24;21.80;99.90
11700;DHT22;5906;51.660;6.674;2023-06-22T16:17:51;21.80;99.90
11700;DHT22;5906;51.660;6.674;2023-06-22T16:20:18;21.80;99.90